createdAt,value
2019-05-22T00:00:44.905Z,1018.75
2019-05-22T00:01:44.905Z,1018.76
2019-05-22T00:02:44.896Z,1018.74
2019-05-22T00:03:44.922Z,1018.71
2019-05-22T00:04:44.926Z,1018.84
2019-05-22T00:05:44.847Z,1018.75
2019-05-22T00:06:44.833Z,1018.89
2019-05-22T00:07:44.833Z,1018.85
2019-05-22T00:08:44.826Z,1018.89
2019-05-22T00:09:44.828Z,1018.89
2019-05-22T00:10:44.793Z,1018.90
2019-05-22T00:11:44.781Z,1018.84
2019-05-22T00:12:46.993Z,1018.86
2019-05-22T00:13:44.781Z,1018.86
2019-05-22T00:14:44.772Z,1018.91
2019-05-22T00:15:44.757Z,1018.88
2019-05-22T00:16:44.729Z,1018.83
2019-05-22T00:17:44.719Z,1018.77
2019-05-22T00:18:44.730Z,1018.85
2019-05-22T00:19:44.700Z,1018.84
2019-05-22T00:20:44.688Z,1018.85
2019-05-22T00:21:44.686Z,1018.87
2019-05-22T00:22:44.678Z,1018.88
2019-05-22T00:23:44.678Z,1018.81
2019-05-22T00:24:44.646Z,1018.92
2019-05-22T00:25:44.645Z,1018.87
2019-05-22T00:26:44.625Z,1018.92
2019-05-22T00:27:44.619Z,1018.87
2019-05-22T00:28:44.602Z,1018.88
2019-05-22T00:29:44.594Z,1018.88
2019-05-22T00:30:44.594Z,1018.92
2019-05-22T00:31:44.567Z,1018.92
2019-05-22T00:32:44.567Z,1018.91
2019-05-22T00:33:44.562Z,1018.89
2019-05-22T00:34:44.546Z,1018.91
2019-05-22T00:35:44.541Z,1018.95
2019-05-22T00:36:44.524Z,1018.90
2019-05-22T00:37:44.502Z,1018.84
2019-05-22T00:38:44.506Z,1018.87
2019-05-22T00:39:44.490Z,1018.94
2019-05-22T00:40:44.482Z,1018.98
2019-05-22T00:41:44.471Z,1018.89
2019-05-22T00:42:44.449Z,1019.00
2019-05-22T00:43:44.522Z,1018.96
2019-05-22T00:44:44.439Z,1019.02
2019-05-22T00:45:44.436Z,1018.98
2019-05-22T00:46:44.407Z,1018.99
2019-05-22T00:47:44.400Z,1019.03
2019-05-22T00:48:44.397Z,1018.93
2019-05-22T00:49:44.374Z,1018.92
2019-05-22T00:50:44.389Z,1019.00
2019-05-22T00:51:44.357Z,1019.04
2019-05-22T00:52:44.347Z,1018.93
2019-05-22T00:53:44.365Z,1019.01
2019-05-22T00:54:44.388Z,1018.96
2019-05-22T00:55:44.322Z,1018.96
2019-05-22T00:56:44.322Z,1019.01
2019-05-22T00:57:44.302Z,1019.06
2019-05-22T00:58:44.293Z,1019.05
2019-05-22T00:59:44.294Z,1018.93
2019-05-22T01:00:44.282Z,1018.99
2019-05-22T01:01:44.287Z,1019.06
2019-05-22T01:02:44.247Z,1019.06
2019-05-22T01:03:44.232Z,1019.03
2019-05-22T01:04:44.219Z,1019.09
2019-05-22T01:05:44.221Z,1019.04
2019-05-22T01:06:44.204Z,1019.12
2019-05-22T01:07:44.202Z,1019.09
2019-05-22T01:08:44.187Z,1019.05
2019-05-22T01:09:44.174Z,1019.14
2019-05-22T01:10:44.158Z,1019.06
2019-05-22T01:11:44.169Z,1019.21
2019-05-22T01:12:44.170Z,1019.15
2019-05-22T01:13:44.121Z,1019.16
2019-05-22T01:14:44.106Z,1019.16
2019-05-22T01:15:44.102Z,1019.07
2019-05-22T01:16:44.096Z,1019.09
2019-05-22T01:17:44.121Z,1019.14
2019-05-22T01:18:44.065Z,1019.09
2019-05-22T01:19:44.054Z,1019.13
2019-05-22T01:20:44.044Z,1019.15
2019-05-22T01:21:44.045Z,1019.14
2019-05-22T01:22:47.221Z,1019.16
2019-05-22T01:23:44.011Z,1019.13
2019-05-22T01:24:44.016Z,1019.11
2019-05-22T01:25:43.996Z,1019.22
2019-05-22T01:26:44.102Z,1019.17
2019-05-22T01:27:43.971Z,1019.15
2019-05-22T01:28:43.963Z,1019.15
2019-05-22T01:29:43.970Z,1019.11
2019-05-22T01:30:43.990Z,1019.14
2019-05-22T01:31:43.951Z,1019.10
2019-05-22T01:32:43.944Z,1019.19
2019-05-22T01:33:43.924Z,1019.12
2019-05-22T01:34:43.900Z,1019.20
2019-05-22T01:35:43.898Z,1019.12
2019-05-22T01:36:43.887Z,1019.13
2019-05-22T01:37:43.867Z,1019.16
2019-05-22T01:38:43.867Z,1019.13
2019-05-22T01:39:43.855Z,1019.17
2019-05-22T01:40:43.838Z,1019.12
2019-05-22T01:41:43.836Z,1019.19
2019-05-22T01:42:43.826Z,1019.16
2019-05-22T01:43:43.806Z,1019.19
2019-05-22T01:44:59.720Z,1019.25
2019-05-22T01:45:44.775Z,1019.16
2019-05-22T01:46:43.807Z,1019.24
2019-05-22T01:47:43.775Z,1019.18
2019-05-22T01:48:43.747Z,1019.19
2019-05-22T01:49:43.752Z,1019.26
2019-05-22T01:50:43.751Z,1019.21
2019-05-22T01:51:43.736Z,1019.24
2019-05-22T01:52:43.702Z,1019.25
2019-05-22T01:53:43.715Z,1019.23
2019-05-22T01:54:43.681Z,1019.19
2019-05-22T01:55:43.714Z,1019.23
2019-05-22T01:56:43.662Z,1019.28
2019-05-22T01:57:43.659Z,1019.28
2019-05-22T01:58:43.653Z,1019.26
2019-05-22T01:59:43.639Z,1019.20
2019-05-22T02:00:43.630Z,1019.23
2019-05-22T02:01:43.609Z,1019.21
2019-05-22T02:02:43.607Z,1019.23
2019-05-22T02:03:43.609Z,1019.20
2019-05-22T02:04:43.566Z,1019.18
2019-05-22T02:05:43.814Z,1019.15
2019-05-22T02:06:43.566Z,1019.16
2019-05-22T02:07:43.550Z,1019.21
2019-05-22T02:08:43.558Z,1019.20
2019-05-22T02:09:43.520Z,1019.20
2019-05-22T02:10:43.527Z,1019.25
2019-05-22T02:11:43.505Z,1019.22
2019-05-22T02:12:43.519Z,1019.19
2019-05-22T02:13:43.517Z,1019.22
2019-05-22T02:14:43.501Z,1019.22
2019-05-22T02:15:43.465Z,1019.18
2019-05-22T02:16:56.344Z,1019.21
2019-05-22T02:17:44.445Z,1019.23
2019-05-22T02:18:43.433Z,1019.23
2019-05-22T02:19:43.413Z,1019.22
2019-05-22T02:20:43.400Z,1019.23
2019-05-22T02:21:43.390Z,1019.23
2019-05-22T02:22:43.382Z,1019.25
2019-05-22T02:23:43.381Z,1019.23
2019-05-22T02:24:43.375Z,1019.23
2019-05-22T02:25:43.350Z,1019.24
2019-05-22T02:26:43.348Z,1019.18
2019-05-22T02:27:43.327Z,1019.20
2019-05-22T02:28:43.338Z,1019.19
2019-05-22T02:29:43.337Z,1019.15
2019-05-22T02:30:43.317Z,1019.18
2019-05-22T02:31:43.289Z,1019.13
2019-05-22T02:32:43.283Z,1019.19
2019-05-22T02:33:43.279Z,1019.20
2019-05-22T02:34:43.257Z,1019.17
2019-05-22T02:35:43.259Z,1019.14
2019-05-22T02:36:43.238Z,1019.16
2019-05-22T02:37:43.228Z,1019.22
2019-05-22T02:38:43.215Z,1019.19
2019-05-22T02:39:43.205Z,1019.24
2019-05-22T02:40:43.193Z,1019.08
2019-05-22T02:41:43.186Z,1019.19
2019-05-22T02:42:43.174Z,1019.21
2019-05-22T02:43:43.174Z,1019.20
2019-05-22T02:44:43.150Z,1019.21
2019-05-22T02:45:43.131Z,1019.20
2019-05-22T02:46:43.142Z,1019.17
2019-05-22T02:47:43.131Z,1019.22
2019-05-22T02:48:43.110Z,1019.17
2019-05-22T02:49:43.104Z,1019.21
2019-05-22T02:50:43.079Z,1019.25
2019-05-22T02:51:43.097Z,1019.16
2019-05-22T02:52:43.062Z,1019.17
2019-05-22T02:53:43.071Z,1019.22
2019-05-22T02:54:43.048Z,1019.17
2019-05-22T02:55:43.033Z,1019.15
2019-05-22T02:56:43.028Z,1019.15
2019-05-22T02:57:43.012Z,1019.15
2019-05-22T02:58:43.017Z,1019.20
2019-05-22T02:59:42.995Z,1019.23
2019-05-22T03:00:42.978Z,1019.15
2019-05-22T03:01:42.979Z,1019.18
2019-05-22T03:02:42.965Z,1019.16
2019-05-22T03:03:42.957Z,1019.18
2019-05-22T03:04:42.946Z,1019.10
2019-05-22T03:05:42.933Z,1019.16
2019-05-22T03:06:42.934Z,1019.16
2019-05-22T03:07:42.906Z,1019.09
2019-05-22T03:08:42.905Z,1019.16
2019-05-22T03:09:46.577Z,1019.13
2019-05-22T03:10:42.876Z,1019.16
2019-05-22T03:11:42.929Z,1019.09
2019-05-22T03:12:42.851Z,1019.10
2019-05-22T03:13:42.850Z,1019.13
2019-05-22T03:14:42.831Z,1019.11
2019-05-22T03:15:42.811Z,1019.16
2019-05-22T03:16:42.811Z,1019.11
2019-05-22T03:17:42.808Z,1019.20
2019-05-22T03:18:42.786Z,1019.22
2019-05-22T03:19:42.785Z,1019.13
2019-05-22T03:20:42.760Z,1019.22
2019-05-22T03:21:42.758Z,1019.15
2019-05-22T03:22:42.757Z,1019.20
2019-05-22T03:23:42.737Z,1019.21
2019-05-22T03:24:43.045Z,1019.14
2019-05-22T03:25:42.726Z,1019.25
2019-05-22T03:26:42.704Z,1019.28
2019-05-22T03:27:42.705Z,1019.21
2019-05-22T03:28:42.675Z,1019.27
2019-05-22T03:29:42.666Z,1019.24
2019-05-22T03:30:42.690Z,1019.21
2019-05-22T03:31:42.649Z,1019.18
2019-05-22T03:32:43.983Z,1019.30
2019-05-22T03:33:42.626Z,1019.26
2019-05-22T03:34:42.613Z,1019.18
2019-05-22T03:35:44.486Z,1019.23
2019-05-22T03:36:42.601Z,1019.27
2019-05-22T03:37:42.611Z,1019.26
2019-05-22T03:38:42.578Z,1019.16
2019-05-22T03:39:42.561Z,1019.25
2019-05-22T03:40:42.551Z,1019.27
2019-05-22T03:41:42.554Z,1019.25
2019-05-22T03:42:42.540Z,1019.26
2019-05-22T03:43:42.519Z,1019.28
2019-05-22T03:44:42.508Z,1019.24
2019-05-22T03:45:42.509Z,1019.34
2019-05-22T03:46:42.494Z,1019.32
2019-05-22T03:47:42.469Z,1019.34
2019-05-22T03:48:42.467Z,1019.32
2019-05-22T03:49:42.467Z,1019.31
2019-05-22T03:50:42.448Z,1019.34
2019-05-22T03:51:42.449Z,1019.33
2019-05-22T03:52:42.427Z,1019.34
2019-05-22T03:53:42.415Z,1019.34
2019-05-22T03:54:42.409Z,1019.29
2019-05-22T03:55:42.389Z,1019.28
2019-05-22T03:56:42.404Z,1019.30
2019-05-22T03:57:42.394Z,1019.26
2019-05-22T03:58:42.354Z,1019.27
2019-05-22T03:59:42.348Z,1019.27
2019-05-22T04:00:43.455Z,1019.27
2019-05-22T04:01:42.331Z,1019.29
2019-05-22T04:02:42.313Z,1019.26
2019-05-22T04:03:42.314Z,1019.30
2019-05-22T04:04:42.292Z,1019.27
2019-05-22T04:05:42.289Z,1019.26
2019-05-22T04:06:42.276Z,1019.32
2019-05-22T04:07:42.260Z,1019.31
2019-05-22T04:08:42.272Z,1019.27
2019-05-22T04:09:42.265Z,1019.36
2019-05-22T04:10:42.267Z,1019.37
2019-05-22T04:11:42.217Z,1019.36
2019-05-22T04:12:42.228Z,1019.35
2019-05-22T04:13:42.212Z,1019.40
2019-05-22T04:14:42.181Z,1019.40
2019-05-22T04:15:42.187Z,1019.36
2019-05-22T04:16:42.177Z,1019.46
2019-05-22T04:17:42.163Z,1019.44
2019-05-22T04:18:42.156Z,1019.45
2019-05-22T04:19:49.131Z,1019.42
2019-05-22T04:20:43.180Z,1019.43
2019-05-22T04:21:42.108Z,1019.37
2019-05-22T04:22:42.114Z,1019.43
2019-05-22T04:23:42.097Z,1019.37
2019-05-22T04:24:42.086Z,1019.38
2019-05-22T04:25:42.143Z,1019.38
2019-05-22T04:26:42.054Z,1019.40
2019-05-22T04:27:42.052Z,1019.44
2019-05-22T04:28:42.045Z,1019.44
2019-05-22T04:29:42.023Z,1019.39
2019-05-22T04:30:42.021Z,1019.48
2019-05-22T04:31:41.999Z,1019.46
2019-05-22T04:32:41.989Z,1019.39
2019-05-22T04:33:41.981Z,1019.43
2019-05-22T04:34:41.979Z,1019.52
2019-05-22T04:35:41.969Z,1019.44
2019-05-22T04:36:41.958Z,1019.51
2019-05-22T04:37:41.947Z,1019.44
2019-05-22T04:38:41.950Z,1019.51
2019-05-22T04:39:41.921Z,1019.52
2019-05-22T04:40:41.907Z,1019.56
2019-05-22T04:41:41.896Z,1019.61
2019-05-22T04:42:41.894Z,1019.57
2019-05-22T04:43:41.886Z,1019.58
2019-05-22T04:44:41.876Z,1019.61
2019-05-22T04:45:41.858Z,1019.58
2019-05-22T04:46:41.854Z,1019.56
2019-05-22T04:47:41.836Z,1019.59
2019-05-22T04:48:45.793Z,1019.67
2019-05-22T04:49:41.813Z,1019.57
2019-05-22T04:50:41.804Z,1019.58
2019-05-22T04:51:41.812Z,1019.57
2019-05-22T04:52:41.781Z,1019.59
2019-05-22T04:53:41.781Z,1019.55
2019-05-22T04:54:41.754Z,1019.54
2019-05-22T04:55:41.742Z,1019.57
2019-05-22T04:56:41.804Z,1019.56
2019-05-22T04:57:41.729Z,1019.58
2019-05-22T04:58:41.711Z,1019.58
2019-05-22T04:59:41.709Z,1019.52
2019-05-22T05:00:41.700Z,1019.58
2019-05-22T05:01:41.699Z,1019.55
2019-05-22T05:02:41.679Z,1019.62
2019-05-22T05:03:41.721Z,1019.60
2019-05-22T05:04:41.673Z,1019.59
2019-05-22T05:05:41.643Z,1019.62
2019-05-22T05:06:41.646Z,1019.59
2019-05-22T05:07:41.615Z,1019.59
2019-05-22T05:08:41.626Z,1019.60
2019-05-22T05:09:41.597Z,1019.65
2019-05-22T05:10:41.600Z,1019.60
2019-05-22T05:11:41.577Z,1019.72
2019-05-22T05:12:41.565Z,1019.70
2019-05-22T05:13:41.553Z,1019.64
2019-05-22T05:14:41.602Z,1019.70
2019-05-22T05:15:41.544Z,1019.72
2019-05-22T05:16:41.544Z,1019.72
2019-05-22T05:17:41.973Z,1019.68
2019-05-22T05:18:41.526Z,1019.72
2019-05-22T05:19:41.491Z,1019.76
2019-05-22T05:20:41.511Z,1019.75
2019-05-22T05:21:41.469Z,1019.68
2019-05-22T05:22:41.459Z,1019.71
2019-05-22T05:23:41.463Z,1019.71
2019-05-22T05:24:41.429Z,1019.73
2019-05-22T05:25:41.421Z,1019.69
2019-05-22T05:26:41.428Z,1019.65
2019-05-22T05:27:41.426Z,1019.74
2019-05-22T05:28:41.402Z,1019.72
2019-05-22T05:29:41.388Z,1019.67
2019-05-22T05:30:41.368Z,1019.73
2019-05-22T05:31:41.360Z,1019.65
2019-05-22T05:32:41.387Z,1019.70
2019-05-22T05:33:41.347Z,1019.77
2019-05-22T05:34:41.333Z,1019.72
2019-05-22T05:35:41.318Z,1019.73
2019-05-22T05:36:41.346Z,1019.70
2019-05-22T05:37:41.325Z,1019.71
2019-05-22T05:38:41.298Z,1019.72
2019-05-22T05:39:41.319Z,1019.77
2019-05-22T05:40:41.267Z,1019.70
2019-05-22T05:41:41.252Z,1019.78
2019-05-22T05:42:41.275Z,1019.75
2019-05-22T05:43:41.282Z,1019.79
2019-05-22T05:44:41.223Z,1019.73
2019-05-22T05:45:41.211Z,1019.83
2019-05-22T05:46:41.201Z,1019.73
2019-05-22T05:47:41.210Z,1019.80
2019-05-22T05:48:41.181Z,1019.82
2019-05-22T05:49:41.171Z,1019.80
2019-05-22T05:50:41.169Z,1019.84
2019-05-22T05:51:41.149Z,1019.82
2019-05-22T05:52:41.148Z,1019.87
2019-05-22T05:53:41.140Z,1019.87
2019-05-22T05:54:41.127Z,1019.90
2019-05-22T05:55:41.109Z,1019.88
2019-05-22T05:56:41.097Z,1019.89
2019-05-22T05:57:41.099Z,1019.90
2019-05-22T05:58:41.145Z,1019.87
2019-05-22T05:59:41.066Z,1019.94
2019-05-22T06:00:44.462Z,1019.96
2019-05-22T06:01:41.056Z,1019.94
2019-05-22T06:02:55.709Z,1019.95
2019-05-22T06:03:42.023Z,1019.99
2019-05-22T06:04:41.013Z,1019.95
2019-05-22T06:05:40.995Z,1019.91
2019-05-22T06:06:40.985Z,1019.96
2019-05-22T06:07:41.005Z,1019.93
2019-05-22T06:08:40.963Z,1019.91
2019-05-22T06:09:40.958Z,1019.89
2019-05-22T06:10:40.942Z,1019.91
2019-05-22T06:11:40.946Z,1019.88
2019-05-22T06:12:40.942Z,1019.86
2019-05-22T06:13:40.911Z,1019.93
2019-05-22T06:14:40.900Z,1019.94
2019-05-22T06:15:47.064Z,1019.87
2019-05-22T06:16:41.879Z,1019.92
2019-05-22T06:17:40.880Z,1019.82
2019-05-22T06:18:40.881Z,1020.00
2019-05-22T06:19:40.861Z,1020.00
2019-05-22T06:20:40.835Z,1019.97
2019-05-22T06:21:40.829Z,1019.94
2019-05-22T06:22:40.882Z,1019.98
2019-05-22T06:23:40.806Z,1020.02
2019-05-22T06:24:40.807Z,1019.95
2019-05-22T06:25:40.797Z,1019.94
2019-05-22T06:26:40.776Z,1019.99
2019-05-22T06:27:40.765Z,1019.94
2019-05-22T06:28:40.785Z,1020.11
2019-05-22T06:29:40.751Z,1020.03
2019-05-22T06:30:40.735Z,1020.05
2019-05-22T06:31:40.714Z,1019.99
2019-05-22T06:32:40.737Z,1019.96
2019-05-22T06:33:40.708Z,1020.02
2019-05-22T06:34:40.683Z,1020.03
2019-05-22T06:35:40.673Z,1019.96
2019-05-22T06:36:40.683Z,1019.91
2019-05-22T06:37:40.653Z,1019.93
2019-05-22T06:38:40.657Z,1019.83
2019-05-22T06:39:40.645Z,1019.82
2019-05-22T06:40:40.622Z,1019.78
2019-05-22T06:41:40.614Z,1019.83
2019-05-22T06:42:40.614Z,1019.77
2019-05-22T06:43:40.611Z,1019.84
2019-05-22T06:44:40.591Z,1019.84
2019-05-22T06:45:40.561Z,1019.99
2019-05-22T06:46:40.561Z,1019.93
2019-05-22T06:47:40.548Z,1019.91
2019-05-22T06:48:40.563Z,1019.90
2019-05-22T06:49:40.532Z,1019.82
2019-05-22T06:50:40.520Z,1020.01
2019-05-22T06:51:40.500Z,1020.02
2019-05-22T06:52:40.493Z,1020.01
2019-05-22T06:53:40.499Z,1020.01
2019-05-22T06:54:40.627Z,1020.12
2019-05-22T06:55:40.458Z,1019.84
2019-05-22T06:56:40.453Z,1020.11
2019-05-22T06:57:40.449Z,1020.09
2019-05-22T06:58:40.427Z,1020.02
2019-05-22T06:59:40.430Z,1019.96
2019-05-22T07:00:45.146Z,1020.08
2019-05-22T07:01:40.400Z,1019.97
2019-05-22T07:02:40.379Z,1019.94
2019-05-22T07:03:40.377Z,1020.09
2019-05-22T07:04:40.367Z,1020.13
2019-05-22T07:05:40.387Z,1020.14
2019-05-22T07:06:40.361Z,1020.14
2019-05-22T07:07:40.335Z,1020.17
2019-05-22T07:08:40.315Z,1020.17
2019-05-22T07:09:40.307Z,1020.07
2019-05-22T07:10:40.323Z,1020.11
2019-05-22T07:11:40.295Z,1020.14
2019-05-22T07:12:40.279Z,1020.16
2019-05-22T07:13:40.267Z,1020.16
2019-05-22T07:14:40.265Z,1020.18
2019-05-22T07:15:40.264Z,1020.17
2019-05-22T07:16:40.234Z,1020.20
2019-05-22T07:17:40.223Z,1020.13
2019-05-22T07:18:40.214Z,1020.15
2019-05-22T07:19:40.217Z,1020.10
2019-05-22T07:20:40.278Z,1020.16
2019-05-22T07:21:40.183Z,1020.10
2019-05-22T07:22:40.173Z,1020.14
2019-05-22T07:23:40.163Z,1020.01
2019-05-22T07:24:40.153Z,1020.22
2019-05-22T07:25:40.152Z,1020.20
2019-05-22T07:26:41.842Z,1020.28
2019-05-22T07:27:40.121Z,1020.22
2019-05-22T07:28:40.112Z,1020.27
2019-05-22T07:29:40.107Z,1020.20
2019-05-22T07:30:40.103Z,1020.25
2019-05-22T07:31:40.080Z,1020.22
2019-05-22T07:32:40.074Z,1020.26
2019-05-22T07:33:40.062Z,1020.21
2019-05-22T07:34:40.042Z,1020.24
2019-05-22T07:36:04.557Z,1020.04
2019-05-22T07:36:41.031Z,1020.04
2019-05-22T07:37:40.024Z,1020.09
2019-05-22T07:38:40.008Z,1020.26
2019-05-22T07:39:40.006Z,1020.02
2019-05-22T07:40:40.012Z,1020.03
2019-05-22T07:41:39.970Z,1020.02
2019-05-22T07:42:40.796Z,1020.05
2019-05-22T07:43:41.664Z,1020.16
2019-05-22T07:44:39.969Z,1020.17
2019-05-22T07:45:40.307Z,1020.10
2019-05-22T07:46:39.922Z,1020.09
2019-05-22T07:47:39.929Z,1020.03
2019-05-22T07:48:39.899Z,1020.04
2019-05-22T07:49:39.901Z,1020.06
2019-05-22T07:50:39.887Z,1020.06
2019-05-22T07:51:53.209Z,1020.06
2019-05-22T07:52:40.858Z,1020.09
2019-05-22T07:53:39.849Z,1020.08
2019-05-22T07:54:39.847Z,1020.16
2019-05-22T07:55:39.847Z,1020.25
2019-05-22T07:56:39.816Z,1020.26
2019-05-22T07:57:39.805Z,1020.19
2019-05-22T07:58:39.816Z,1020.09
2019-05-22T07:59:39.796Z,1020.22
2019-05-22T08:00:39.786Z,1020.08
2019-05-22T08:01:39.805Z,1020.07
2019-05-22T08:02:39.771Z,1020.12
2019-05-22T08:03:39.745Z,1020.11
2019-05-22T08:04:39.755Z,1020.30
2019-05-22T08:05:39.726Z,1020.12
2019-05-22T08:06:39.753Z,1020.26
2019-05-22T08:07:39.850Z,1020.17
2019-05-22T08:08:40.217Z,1020.14
2019-05-22T08:09:39.684Z,1020.09
2019-05-22T08:10:39.673Z,1020.14
2019-05-22T08:11:39.676Z,1020.18
2019-05-22T08:12:39.644Z,1020.13
2019-05-22T08:13:39.648Z,1020.19
2019-05-22T08:14:39.633Z,1020.28
2019-05-22T08:15:39.631Z,1020.29
2019-05-22T08:16:39.603Z,1020.27
2019-05-22T08:17:39.593Z,1020.29
2019-05-22T08:18:39.597Z,1020.22
2019-05-22T08:19:39.584Z,1020.26
2019-05-22T08:20:39.570Z,1020.28
2019-05-22T08:21:39.573Z,1020.16
2019-05-22T08:22:39.543Z,1020.22
2019-05-22T08:23:39.540Z,1020.09
2019-05-22T08:24:40.329Z,1020.00
2019-05-22T08:25:39.537Z,1020.11
2019-05-22T08:26:53.152Z,1019.96
2019-05-22T08:27:40.480Z,1020.02
2019-05-22T08:28:39.489Z,1020.09
2019-05-22T08:29:39.470Z,1019.97
2019-05-22T08:30:39.475Z,1019.99
2019-05-22T08:31:39.494Z,1020.05
2019-05-22T08:32:39.429Z,1020.10
2019-05-22T08:33:39.426Z,1020.09
2019-05-22T08:34:39.442Z,1020.23
2019-05-22T08:35:39.603Z,1020.33
2019-05-22T08:36:39.430Z,1020.09
2019-05-22T08:37:39.482Z,1020.22
2019-05-22T08:38:39.438Z,1020.29
2019-05-22T08:39:39.411Z,1020.08
2019-05-22T08:40:39.347Z,1020.02
2019-05-22T08:41:39.359Z,1020.15
2019-05-22T08:42:39.344Z,1020.18
2019-05-22T08:44:03.141Z,1020.20
2019-05-22T08:44:40.308Z,1020.21
2019-05-22T08:45:39.368Z,1020.23
2019-05-22T08:46:39.290Z,1020.18
2019-05-22T08:47:39.307Z,1020.15
2019-05-22T08:48:46.642Z,1020.27
2019-05-22T08:49:40.320Z,1020.18
2019-05-22T08:50:39.258Z,1020.20
2019-05-22T08:51:39.236Z,1020.16
2019-05-22T08:52:39.215Z,1020.13
2019-05-22T08:53:47.374Z,1020.19
2019-05-22T08:54:40.219Z,1020.14
2019-05-22T08:55:39.196Z,1020.15
2019-05-22T08:56:39.269Z,1020.12
2019-05-22T08:57:39.164Z,1020.11
2019-05-22T08:58:39.172Z,1020.12
2019-05-22T08:59:39.154Z,1019.95
2019-05-22T09:00:39.134Z,1020.13
2019-05-22T09:01:39.124Z,1019.95
2019-05-22T09:02:39.141Z,1020.03
2019-05-22T09:03:39.116Z,1020.05
2019-05-22T09:04:39.125Z,1019.99
2019-05-22T09:05:39.095Z,1020.00
2019-05-22T09:06:39.102Z,1020.05
2019-05-22T09:07:39.102Z,1020.08
2019-05-22T09:08:39.063Z,1020.07
2019-05-22T09:09:39.042Z,1020.08
2019-05-22T09:10:39.038Z,1020.24
2019-05-22T09:11:39.032Z,1020.07
2019-05-22T09:12:39.014Z,1020.10
2019-05-22T09:13:39.083Z,1020.03
2019-05-22T09:14:39.026Z,1020.09
2019-05-22T09:15:39.006Z,1020.09
2019-05-22T09:16:38.971Z,1020.08
2019-05-22T09:17:38.962Z,1020.10
2019-05-22T09:18:38.980Z,1020.14
2019-05-22T09:19:38.930Z,1020.16
2019-05-22T09:20:49.027Z,1020.12
2019-05-22T09:21:40.604Z,1020.19
2019-05-22T09:22:41.000Z,1020.13
2019-05-22T09:23:38.951Z,1020.08
2019-05-22T09:24:38.888Z,1020.03
2019-05-22T09:25:38.878Z,1020.13
2019-05-22T09:26:38.860Z,1020.10
2019-05-22T09:27:38.862Z,1019.99
2019-05-22T09:28:38.878Z,1020.06
2019-05-22T09:29:38.848Z,1020.02
2019-05-22T09:30:38.831Z,1020.02
2019-05-22T09:31:38.817Z,1020.07
2019-05-22T09:32:38.807Z,1020.03
2019-05-22T09:33:38.821Z,1020.07
2019-05-22T09:34:38.776Z,1020.06
2019-05-22T09:35:38.777Z,1020.07
2019-05-22T09:36:38.766Z,1020.05
2019-05-22T09:37:38.816Z,1020.08
2019-05-22T09:38:38.749Z,1020.10
2019-05-22T09:39:38.726Z,1020.08
2019-05-22T09:40:38.719Z,1020.05
2019-05-22T09:41:38.724Z,1020.15
2019-05-22T09:42:38.699Z,1020.08
2019-05-22T09:43:38.747Z,1020.06
2019-05-22T09:44:38.674Z,1020.15
2019-05-22T09:45:38.664Z,1020.14
2019-05-22T09:46:38.663Z,1020.14
2019-05-22T09:47:38.652Z,1020.15
2019-05-22T09:48:38.641Z,1020.21
2019-05-22T09:49:38.662Z,1020.21
2019-05-22T09:50:38.637Z,1020.18
2019-05-22T09:51:39.271Z,1020.22
2019-05-22T09:52:38.603Z,1020.22
2019-05-22T09:53:39.260Z,1020.23
2019-05-22T09:54:38.578Z,1020.23
2019-05-22T09:55:39.262Z,1020.17
2019-05-22T09:56:38.552Z,1020.20
2019-05-22T09:57:39.772Z,1020.11
2019-05-22T09:58:38.549Z,1020.14
2019-05-22T09:59:39.169Z,1020.22
2019-05-22T10:00:38.500Z,1020.13
2019-05-22T10:01:38.521Z,1020.15
2019-05-22T10:02:38.501Z,1020.15
2019-05-22T10:03:38.489Z,1020.18
2019-05-22T10:04:38.468Z,1020.13
2019-05-22T10:05:38.499Z,1020.16
2019-05-22T10:06:38.458Z,1020.13
2019-05-22T10:07:57.015Z,1020.12
2019-05-22T10:08:39.416Z,1020.15
2019-05-22T10:09:38.421Z,1020.12
2019-05-22T10:10:38.394Z,1020.18
2019-05-22T10:11:38.396Z,1020.19
2019-05-22T10:12:38.390Z,1020.15
2019-05-22T10:13:38.381Z,1020.16
2019-05-22T10:14:38.683Z,1020.17
2019-05-22T10:15:38.345Z,1020.10
2019-05-22T10:16:38.336Z,1020.14
2019-05-22T10:17:38.325Z,1020.17
2019-05-22T10:18:38.334Z,1020.14
2019-05-22T10:19:38.294Z,1020.08
2019-05-22T10:20:38.306Z,1020.14
2019-05-22T10:21:38.273Z,1020.12
2019-05-22T10:22:38.265Z,1020.10
2019-05-22T10:23:38.294Z,1020.16
2019-05-22T10:24:38.244Z,1020.10
2019-05-22T10:25:38.233Z,1020.13
2019-05-22T10:26:38.224Z,1020.10
2019-05-22T10:27:38.212Z,1020.22
2019-05-22T10:28:38.214Z,1020.06
2019-05-22T10:29:38.211Z,1020.15
2019-05-22T10:30:38.207Z,1020.09
2019-05-22T10:31:38.171Z,1020.06
2019-05-22T10:32:38.161Z,1020.06
2019-05-22T10:33:38.153Z,1020.04
2019-05-22T10:34:38.151Z,1020.03
2019-05-22T10:35:38.135Z,1020.09
2019-05-22T10:36:38.114Z,1020.10
2019-05-22T10:37:38.108Z,1020.08
2019-05-22T10:38:38.110Z,1020.11
2019-05-22T10:39:38.099Z,1020.06
2019-05-22T10:40:38.073Z,1020.05
2019-05-22T10:41:38.069Z,1020.09
2019-05-22T10:42:38.101Z,1020.05
2019-05-22T10:43:38.039Z,1020.04
2019-05-22T10:44:38.033Z,1020.05
2019-05-22T10:45:38.026Z,1020.07
2019-05-22T10:46:38.021Z,1020.02
2019-05-22T10:47:38.135Z,1020.09
2019-05-22T10:48:40.505Z,1020.00
2019-05-22T10:49:37.978Z,1020.02
2019-05-22T10:50:37.980Z,1019.99
2019-05-22T10:51:37.955Z,1019.99
2019-05-22T10:52:37.975Z,1019.96
2019-05-22T10:53:37.953Z,1019.99
2019-05-22T10:54:37.936Z,1020.04
2019-05-22T10:55:37.915Z,1020.08
2019-05-22T10:56:37.905Z,1020.11
2019-05-22T10:57:40.784Z,1020.04
2019-05-22T10:58:37.877Z,1020.01
2019-05-22T10:59:37.871Z,1020.01
2019-05-22T11:00:37.881Z,1020.09
2019-05-22T11:01:37.868Z,1020.06
2019-05-22T11:02:37.842Z,1020.06
2019-05-22T11:03:37.834Z,1020.09
2019-05-22T11:04:37.838Z,1019.99
2019-05-22T11:05:37.806Z,1020.07
2019-05-22T11:06:37.801Z,1020.00
2019-05-22T11:07:37.791Z,1020.05
2019-05-22T11:08:37.781Z,1019.99
2019-05-22T11:09:37.760Z,1020.01
2019-05-22T11:10:37.761Z,1020.06
2019-05-22T11:11:37.739Z,1020.08
2019-05-22T11:12:37.740Z,1020.07
2019-05-22T11:13:37.778Z,1020.10
2019-05-22T11:14:37.710Z,1020.07
2019-05-22T11:15:37.719Z,1020.01
2019-05-22T11:16:37.689Z,1020.17
2019-05-22T11:17:37.679Z,1020.17
2019-05-22T11:18:37.678Z,1019.99
2019-05-22T11:19:37.660Z,1020.10
2019-05-22T11:20:37.658Z,1020.11
2019-05-22T11:21:37.636Z,1020.06
2019-05-22T11:22:37.626Z,1020.07
2019-05-22T11:23:51.299Z,1020.06
2019-05-22T11:24:38.615Z,1020.09
2019-05-22T11:25:37.628Z,1020.10
2019-05-22T11:26:37.838Z,1020.11
2019-05-22T11:27:37.583Z,1020.06
2019-05-22T11:28:37.575Z,1020.08
2019-05-22T11:29:37.575Z,1020.08
2019-05-22T11:30:37.548Z,1020.14
2019-05-22T11:31:37.525Z,1020.10
2019-05-22T11:32:37.526Z,1020.16
2019-05-22T11:33:37.525Z,1020.03
2019-05-22T11:34:37.561Z,1020.05
2019-05-22T11:35:37.493Z,1020.01
2019-05-22T11:36:37.484Z,1020.04
2019-05-22T11:37:37.463Z,1020.03
2019-05-22T11:38:37.487Z,1019.98
2019-05-22T11:39:39.855Z,1020.05
2019-05-22T11:40:37.451Z,1020.00
2019-05-22T11:41:37.432Z,1020.04
2019-05-22T11:42:37.412Z,1020.01
2019-05-22T11:43:37.423Z,1020.07
2019-05-22T11:44:37.401Z,1020.01
2019-05-22T11:45:37.432Z,1020.00
2019-05-22T11:46:37.390Z,1020.10
2019-05-22T11:47:37.375Z,1020.09
2019-05-22T11:48:37.344Z,1020.09
2019-05-22T11:49:37.367Z,1020.14
2019-05-22T11:50:37.337Z,1020.06
2019-05-22T11:51:37.336Z,1020.08
2019-05-22T11:52:37.307Z,1020.06
2019-05-22T11:53:37.297Z,1020.03
2019-05-22T11:54:37.286Z,1020.05
2019-05-22T11:55:45.247Z,1020.07
2019-05-22T11:56:38.272Z,1020.11
2019-05-22T11:57:37.247Z,1020.07
2019-05-22T11:58:37.245Z,1020.09
2019-05-22T11:59:37.256Z,1020.09
2019-05-22T12:00:37.314Z,1020.05
2019-05-22T12:01:37.224Z,1020.06
2019-05-22T12:02:37.206Z,1020.08
2019-05-22T12:04:48.293Z,1020.25
2019-05-22T12:05:46.963Z,1020.15
2019-05-22T12:06:46.097Z,1020.19